CWYO2: Chewey Road

Data processed at Mon Apr 23 2018 21:22


All information presented herein is the property of the government of the United States of America and may be revised or deleted at any time without prior notice.
Dissemination of this information without the expressed written consent of the Public Affairs Office, Tulsa District U.S. Army Corps of Engineers is strictly prohibited.
These data are gathered electronically and, as presented, have not undergone any form of quality control. These data are not guaranteed to be valid or correct.
Go to home page.
Go to station list.

Upstream stations:

Downstream station:
Previous Day
Next Day
Current Day
    
SHEF ID:       CWYO2     Illinois River at Chewey, OK
STATION TYPE:  

               PRECIP     STAGE  STAGE(2)  RIV-FLOW  BAT-LOAD
                   in        ft        ft       cfs      volt
              Ccp-Rev   Ccp-Rev   Ccp-Rev   Ccp-Rev   Ccp-Rev
(US/Central)
04/23 00:00      0.00      5.22      6.08      1176     12.54
04/23 01:00      0.01      5.24      5.25      1193     12.54
04/23 02:00      0.00      5.26      5.52      1211     12.54
04/23 03:00      0.00      5.27      6.01      1219     12.54
04/23 04:00      0.00      5.28      6.90      1228     12.48
04/23 05:00      0.00      5.29      6.59      1237     12.54
04/23 06:00      0.00      5.31      5.86      1255     12.54
04/23 07:00      0.00      5.32      6.55      1263     12.48
04/23 08:00      0.00      5.34      6.67      1281     12.54
04/23 09:00      0.00      5.36      6.79      1299     12.54
04/23 10:00      0.00      5.37      5.33      1308     12.65
04/23 11:00      0.00      5.38      6.59      1317     12.95
04/23 12:00      0.00      5.39      6.60      1326     13.24
04/23 13:00      0.00      5.39      6.89      1326     13.12
04/23 14:00      0.00      5.39      6.70      1326     13.42
04/23 15:00      0.00      5.34      6.75      1281     13.53
04/23 16:00      0.00      5.38      6.76      1317     13.83
04/23 17:00      0.00      5.37      6.47      1308     13.59
04/23 18:00      0.00      5.37      6.23      1308     13.36
04/23 19:00      0.00      5.36      6.48      1299     13.24
04/23 20:00      0.00      5.35      5.45      1290     12.89
04/23 21:00      ----      ----      ----      ----      ----
04/23 22:00      ----      ----      ----      ----      ----
04/23 23:00      ----      ----      ----      ----      ----